createdAt,value
2022-10-02T00:01:33.090Z,13.49
2022-10-02T00:04:02.414Z,13.47
2022-10-02T00:06:43.168Z,13.51
2022-10-02T00:09:20.123Z,13.50
2022-10-02T00:11:51.364Z,13.50
2022-10-02T00:14:23.540Z,13.51
2022-10-02T00:16:54.855Z,13.48
2022-10-02T00:19:22.706Z,13.49
2022-10-02T00:22:02.662Z,13.53
2022-10-02T00:24:39.693Z,13.54
2022-10-02T00:27:18.389Z,13.53
2022-10-02T00:29:50.659Z,13.53
2022-10-02T00:32:30.040Z,13.54
2022-10-02T00:35:24.098Z,13.52
2022-10-02T00:37:59.214Z,13.55
2022-10-02T00:41:08.338Z,13.52
2022-10-02T00:43:44.278Z,13.54
2022-10-02T00:46:29.230Z,13.57
2022-10-02T00:49:10.482Z,13.58
2022-10-02T00:51:51.520Z,13.60
2022-10-02T00:54:47.230Z,13.61
2022-10-02T00:57:28.905Z,13.61
2022-10-02T01:00:05.749Z,13.65
2022-10-02T01:02:52.349Z,13.66
2022-10-02T01:05:21.312Z,13.63
2022-10-02T01:07:53.870Z,13.67
2022-10-02T01:10:25.740Z,13.67
2022-10-02T01:12:56.968Z,13.68
2022-10-02T01:15:31.554Z,13.71
2022-10-02T01:18:02.050Z,13.70
2022-10-02T01:20:37.443Z,13.74
2022-10-02T01:23:28.954Z,13.73
2022-10-02T01:25:59.161Z,13.74
2022-10-02T01:28:27.673Z,13.75
2022-10-02T01:31:00.741Z,13.77
2022-10-02T01:33:28.698Z,13.77
2022-10-02T01:35:56.837Z,13.78
2022-10-02T01:38:25.724Z,13.80
2022-10-02T01:40:53.797Z,13.79
2022-10-02T01:43:26.779Z,13.84
2022-10-02T01:46:16.449Z,13.85
2022-10-02T01:48:48.328Z,13.85
2022-10-02T01:51:50.330Z,13.83
2022-10-02T01:54:25.701Z,13.87
2022-10-02T01:57:04.035Z,13.89
2022-10-02T01:59:47.067Z,13.91
2022-10-02T02:02:19.037Z,13.62
2022-10-02T02:04:54.982Z,13.89
2022-10-02T02:07:38.893Z,13.94
2022-10-02T02:10:42.911Z,13.93
2022-10-02T02:13:15.609Z,13.94
2022-10-02T02:15:48.997Z,13.67
2022-10-02T02:18:22.258Z,13.62
2022-10-02T02:21:03.218Z,13.92
2022-10-02T02:23:35.202Z,13.97
2022-10-02T02:26:06.718Z,13.96
2022-10-02T02:28:37.438Z,13.99
2022-10-02T02:31:09.875Z,14.00
2022-10-02T02:33:42.157Z,13.99
2022-10-02T02:36:15.651Z,14.00
2022-10-02T02:38:47.586Z,14.02
2022-10-02T02:41:18.037Z,14.03
2022-10-02T02:43:49.897Z,14.05
2022-10-02T02:46:24.306Z,14.06
2022-10-02T02:48:56.209Z,14.07
2022-10-02T02:51:31.894Z,14.06
2022-10-02T02:54:04.912Z,14.09
2022-10-02T02:56:34.458Z,14.09
2022-10-02T02:59:06.768Z,14.10
2022-10-02T03:01:36.053Z,14.10
2022-10-02T03:04:04.044Z,14.10
2022-10-02T03:06:35.579Z,14.14
2022-10-02T03:09:06.448Z,14.13
2022-10-02T03:11:49.138Z,14.17
2022-10-02T03:14:43.385Z,14.16
2022-10-02T03:17:23.875Z,14.17
2022-10-02T03:19:58.162Z,14.17
2022-10-02T03:22:35.534Z,14.20
2022-10-02T03:25:09.632Z,14.21
2022-10-02T03:27:43.636Z,14.20
2022-10-02T03:30:14.036Z,14.21
2022-10-02T03:32:46.648Z,14.23
2022-10-02T03:35:16.149Z,14.21
2022-10-02T03:37:48.091Z,14.23
2022-10-02T03:40:16.081Z,14.18
2022-10-02T03:42:43.864Z,14.21
2022-10-02T03:45:23.066Z,14.19
2022-10-02T03:48:01.427Z,14.19
2022-10-02T03:50:32.828Z,14.16
2022-10-02T03:53:08.071Z,14.13
2022-10-02T03:55:39.781Z,14.13
2022-10-02T03:58:14.854Z,14.11
2022-10-02T04:00:51.046Z,14.11
2022-10-02T04:03:27.147Z,14.10
2022-10-02T04:06:01.198Z,14.10
2022-10-02T04:08:33.446Z,14.09
2022-10-02T04:11:07.930Z,14.07
2022-10-02T04:13:40.889Z,14.08
2022-10-02T04:16:14.590Z,13.79
2022-10-02T04:18:52.917Z,14.04
2022-10-02T04:21:30.623Z,14.07
2022-10-02T04:24:06.909Z,14.07
2022-10-02T04:26:38.572Z,14.07
2022-10-02T04:29:16.427Z,14.06
2022-10-02T04:31:45.590Z,14.06
2022-10-02T04:34:15.118Z,14.08
2022-10-02T04:36:59.630Z,14.09
2022-10-02T04:39:55.219Z,14.07
2022-10-02T04:42:35.936Z,14.08
2022-10-02T04:45:17.741Z,14.09
2022-10-02T04:48:15.714Z,14.08
2022-10-02T04:50:52.762Z,14.08
2022-10-02T04:53:38.573Z,14.10
2022-10-02T04:56:37.095Z,14.06
2022-10-02T04:59:15.041Z,14.08
2022-10-02T05:01:59.574Z,14.09
2022-10-02T05:04:47.722Z,14.07
2022-10-02T05:07:36.358Z,14.06
2022-10-02T05:10:19.628Z,14.08
2022-10-02T05:13:00.254Z,14.08
2022-10-02T05:15:41.126Z,14.08
2022-10-02T05:18:24.057Z,14.08
2022-10-02T05:20:57.871Z,13.78
2022-10-02T05:23:41.369Z,14.06
2022-10-02T05:26:42.863Z,14.06
2022-10-02T05:29:32.353Z,14.06
2022-10-02T05:32:17.096Z,14.08
2022-10-02T05:35:01.445Z,14.08
2022-10-02T05:37:43.581Z,14.08
2022-10-02T05:40:21.394Z,14.06
2022-10-02T05:42:59.477Z,14.09
2022-10-02T05:45:30.244Z,14.07
2022-10-02T05:48:07.293Z,14.09
2022-10-02T05:50:37.530Z,14.07
2022-10-02T05:53:12.077Z,14.09
2022-10-02T05:55:47.811Z,14.09
2022-10-02T05:58:20.969Z,14.09
2022-10-02T06:00:58.148Z,14.09
2022-10-02T06:03:32.238Z,14.08
2022-10-02T06:06:03.608Z,14.08
2022-10-02T06:08:35.829Z,14.09
2022-10-02T06:11:11.491Z,14.07
2022-10-02T06:13:46.266Z,14.10
2022-10-02T06:16:21.144Z,14.10
2022-10-02T06:18:54.224Z,14.09
2022-10-02T06:21:32.268Z,14.11
2022-10-02T06:24:06.054Z,14.10
2022-10-02T06:26:43.089Z,14.12
2022-10-02T06:29:19.895Z,14.12
2022-10-02T06:32:03.281Z,14.14
2022-10-02T06:34:31.247Z,14.11
2022-10-02T06:37:26.952Z,14.15
2022-10-02T06:40:14.134Z,14.17
2022-10-02T06:42:52.742Z,14.19
2022-10-02T06:45:27.733Z,14.20
2022-10-02T06:48:06.655Z,14.22
2022-10-02T06:50:44.494Z,14.24
2022-10-02T06:53:34.220Z,14.27
2022-10-02T06:56:16.320Z,14.29
2022-10-02T06:59:04.633Z,14.28
2022-10-02T07:01:44.480Z,14.31
2022-10-02T07:04:26.483Z,14.33
2022-10-02T07:07:05.926Z,14.36
2022-10-02T07:09:44.179Z,14.38
2022-10-02T07:12:27.845Z,14.38
2022-10-02T07:15:11.585Z,14.40
2022-10-02T07:17:53.437Z,14.42
2022-10-02T07:20:32.188Z,14.46
2022-10-02T07:23:14.930Z,14.46
2022-10-02T07:25:58.183Z,14.44
2022-10-02T07:28:34.524Z,14.48
2022-10-02T07:31:12.042Z,14.50
2022-10-02T07:33:54.085Z,14.54
2022-10-02T07:36:31.338Z,14.53
2022-10-02T07:39:10.064Z,14.57
2022-10-02T07:42:00.369Z,14.57
2022-10-02T07:44:44.537Z,14.61
2022-10-02T07:47:23.836Z,14.61
2022-10-02T07:49:57.303Z,14.61
2022-10-02T07:52:37.465Z,14.64
2022-10-02T07:55:16.873Z,14.63
2022-10-02T07:57:53.877Z,14.63
2022-10-02T08:00:25.612Z,14.63
2022-10-02T08:02:59.755Z,14.64
2022-10-02T08:05:31.230Z,14.64
2022-10-02T08:08:03.517Z,14.65
2022-10-02T08:10:37.784Z,14.64
2022-10-02T08:13:12.095Z,14.66
2022-10-02T08:15:43.401Z,14.67
2022-10-02T08:18:33.586Z,14.69
2022-10-02T08:21:04.150Z,14.68
2022-10-02T08:23:38.675Z,14.72
2022-10-02T08:26:12.628Z,14.73
2022-10-02T08:28:45.652Z,14.75
2022-10-02T08:31:16.188Z,14.75
2022-10-02T08:33:45.457Z,14.77
2022-10-02T08:36:36.911Z,14.82
2022-10-02T08:39:20.486Z,14.83
2022-10-02T08:42:18.435Z,14.85
2022-10-02T08:45:39.162Z,14.85
2022-10-02T08:48:44.259Z,14.84
2022-10-02T08:51:47.270Z,14.88
2022-10-02T08:54:52.208Z,14.89
2022-10-02T08:57:38.874Z,14.94
2022-10-02T09:00:20.702Z,14.95
2022-10-02T09:03:45.773Z,14.91
2022-10-02T09:07:07.630Z,14.92
2022-10-02T09:10:27.017Z,14.89
2022-10-02T09:13:15.807Z,14.94
2022-10-02T09:15:49.124Z,14.94
2022-10-02T09:18:19.715Z,14.95
2022-10-02T09:21:29.114Z,14.88
2022-10-02T09:24:35.647Z,14.92
2022-10-02T09:27:33.416Z,14.93
2022-10-02T09:30:28.014Z,14.94
2022-10-02T09:33:30.058Z,14.94
2022-10-02T09:36:49.359Z,14.92
2022-10-02T09:39:56.001Z,14.90
2022-10-02T09:43:00.134Z,14.94
2022-10-02T09:46:16.081Z,14.96
2022-10-02T09:49:16.933Z,14.99
2022-10-02T09:52:23.246Z,15.04
2022-10-02T09:55:35.323Z,15.06
2022-10-02T09:58:37.661Z,15.10
2022-10-02T10:01:31.018Z,15.18
2022-10-02T10:05:01.337Z,15.21
2022-10-02T10:07:58.835Z,15.26
2022-10-02T10:10:51.031Z,15.30
2022-10-02T10:14:09.567Z,15.28
2022-10-02T10:17:22.369Z,15.37
2022-10-02T10:20:24.286Z,15.40
2022-10-02T10:23:08.027Z,15.45
2022-10-02T10:26:15.159Z,15.45
2022-10-02T10:29:16.954Z,15.47
2022-10-02T10:32:27.736Z,15.44
2022-10-02T10:35:37.568Z,15.45
2022-10-02T10:38:33.387Z,15.55
2022-10-02T10:41:51.028Z,15.55
2022-10-02T10:44:40.998Z,15.63
2022-10-02T10:47:28.786Z,15.68
2022-10-02T10:50:19.185Z,15.74
2022-10-02T10:53:11.668Z,15.79
2022-10-02T10:55:59.302Z,15.84
2022-10-02T10:58:44.620Z,15.91
2022-10-02T11:01:18.721Z,15.97
2022-10-02T11:04:19.430Z,16.04
2022-10-02T11:07:08.734Z,16.12
2022-10-02T11:09:57.585Z,16.23
2022-10-02T11:13:01.010Z,16.32
2022-10-02T11:16:07.475Z,16.44
2022-10-02T11:19:02.127Z,16.52
2022-10-02T11:21:56.433Z,16.61
2022-10-02T11:25:01.956Z,16.69
2022-10-02T11:28:06.194Z,16.78
2022-10-02T11:30:49.143Z,16.86
2022-10-02T11:33:23.133Z,16.63
2022-10-02T11:36:08.805Z,16.98
2022-10-02T11:39:08.080Z,17.00
2022-10-02T11:42:27.493Z,17.04
2022-10-02T11:45:21.086Z,17.12
2022-10-02T11:48:14.471Z,17.19
2022-10-02T11:51:02.786Z,17.21
2022-10-02T11:53:53.888Z,17.24
2022-10-02T11:56:36.455Z,17.28
2022-10-02T11:59:28.354Z,17.29
2022-10-02T12:02:02.912Z,17.33
2022-10-02T12:04:41.967Z,17.39
2022-10-02T12:07:22.200Z,17.45
2022-10-02T12:10:07.799Z,17.50
2022-10-02T12:12:51.457Z,17.55
2022-10-02T12:15:31.684Z,17.60
2022-10-02T12:18:19.453Z,17.65
2022-10-02T12:21:28.969Z,17.66
2022-10-02T12:24:20.265Z,17.67
2022-10-02T12:27:04.547Z,17.72
2022-10-02T12:29:43.683Z,17.74
2022-10-02T12:32:24.190Z,17.74
2022-10-02T12:35:03.681Z,17.77
2022-10-02T12:37:37.167Z,17.77
2022-10-02T12:40:18.285Z,17.80
2022-10-02T12:43:18.185Z,17.80
2022-10-02T12:46:21.087Z,17.84
2022-10-02T12:49:22.073Z,17.86
2022-10-02T12:52:07.025Z,18.00
2022-10-02T12:54:59.259Z,18.06
2022-10-02T12:57:55.856Z,18.11
2022-10-02T13:00:26.214Z,18.19
2022-10-02T13:03:46.937Z,18.25
2022-10-02T13:06:37.238Z,18.32
2022-10-02T13:09:20.611Z,18.40
2022-10-02T13:12:09.549Z,18.45
2022-10-02T13:14:56.380Z,18.49
2022-10-02T13:17:38.318Z,18.52
2022-10-02T13:20:18.584Z,18.54
2022-10-02T13:22:58.160Z,18.56
2022-10-02T13:25:39.887Z,18.57
2022-10-02T13:28:22.602Z,18.58
2022-10-02T13:31:02.543Z,18.59
2022-10-02T13:33:50.111Z,18.58
2022-10-02T13:36:25.885Z,18.56
2022-10-02T13:39:18.134Z,18.54
2022-10-02T13:42:00.364Z,18.53
2022-10-02T13:44:40.090Z,18.52
2022-10-02T13:47:38.520Z,18.52
2022-10-02T13:50:26.697Z,18.50
2022-10-02T13:53:09.913Z,18.52
2022-10-02T13:55:46.385Z,18.52
2022-10-02T13:58:38.263Z,18.49
2022-10-02T14:01:19.735Z,18.49
2022-10-02T14:04:10.817Z,18.47
2022-10-02T14:06:42.625Z,18.45
2022-10-02T14:09:26.675Z,18.43
2022-10-02T14:12:20.813Z,18.42
2022-10-02T14:15:12.365Z,18.38
2022-10-02T14:17:53.656Z,18.34
2022-10-02T14:20:34.364Z,18.32
2022-10-02T14:23:23.702Z,18.28
2022-10-02T14:26:01.706Z,18.24
2022-10-02T14:29:08.763Z,18.18
2022-10-02T14:31:55.607Z,18.15
2022-10-02T14:34:59.235Z,18.08
2022-10-02T14:37:44.506Z,18.08
2022-10-02T14:40:15.419Z,18.03
2022-10-02T14:42:59.631Z,18.02
2022-10-02T14:45:50.958Z,17.98
2022-10-02T14:48:30.623Z,17.96
2022-10-02T14:51:19.157Z,17.93
2022-10-02T14:54:01.502Z,17.92
2022-10-02T14:56:51.081Z,17.88
2022-10-02T14:59:33.372Z,17.89
2022-10-02T15:02:24.605Z,17.86
2022-10-02T15:05:03.582Z,17.87
2022-10-02T15:07:35.735Z,17.85
2022-10-02T15:10:15.221Z,17.85
2022-10-02T15:12:55.672Z,17.83
2022-10-02T15:15:33.764Z,17.81
2022-10-02T15:18:21.179Z,17.80
2022-10-02T15:20:59.292Z,17.77
2022-10-02T15:23:43.335Z,17.77
2022-10-02T15:26:26.529Z,17.76
2022-10-02T15:29:07.570Z,17.75
2022-10-02T15:31:44.150Z,17.74
2022-10-02T15:34:25.696Z,17.74
2022-10-02T15:37:13.682Z,17.73
2022-10-02T15:40:05.159Z,17.70
2022-10-02T15:42:49.911Z,17.72
2022-10-02T15:45:27.657Z,17.72
2022-10-02T15:48:22.401Z,17.72
2022-10-02T15:50:59.935Z,17.75
2022-10-02T15:53:38.631Z,17.75
2022-10-02T15:56:26.628Z,17.76
2022-10-02T15:59:11.634Z,17.79
2022-10-02T16:01:51.574Z,17.81
2022-10-02T16:04:30.849Z,17.82
2022-10-02T16:07:36.879Z,17.82
2022-10-02T16:10:18.355Z,17.82
2022-10-02T16:13:18.570Z,17.81
2022-10-02T16:15:52.690Z,17.83
2022-10-02T16:18:37.467Z,17.84
2022-10-02T16:21:39.216Z,17.83
2022-10-02T16:24:27.257Z,17.83
2022-10-02T16:27:19.224Z,17.81
2022-10-02T16:30:02.750Z,17.83
2022-10-02T16:32:39.511Z,17.83
2022-10-02T16:35:25.113Z,17.82
2022-10-02T16:38:01.886Z,17.80
2022-10-02T16:40:40.421Z,17.80
2022-10-02T16:43:45.906Z,17.73
2022-10-02T16:46:17.739Z,17.71
2022-10-02T16:48:52.947Z,17.69
2022-10-02T16:51:40.356Z,17.66
2022-10-02T16:54:18.451Z,17.63
2022-10-02T16:56:53.642Z,17.60
2022-10-02T16:59:26.522Z,17.56
2022-10-02T17:02:16.957Z,17.52
2022-10-02T17:04:56.622Z,17.48
2022-10-02T17:07:33.699Z,17.44
2022-10-02T17:10:07.637Z,17.39
2022-10-02T17:12:52.670Z,17.35
2022-10-02T17:15:26.494Z,17.30
2022-10-02T17:18:06.347Z,17.26
2022-10-02T17:20:41.742Z,17.22
2022-10-02T17:23:17.714Z,17.19
2022-10-02T17:25:54.798Z,17.14
2022-10-02T17:28:31.500Z,17.09
2022-10-02T17:31:24.231Z,17.00
2022-10-02T17:33:55.706Z,16.95
2022-10-02T17:36:32.704Z,16.94
2022-10-02T17:39:20.240Z,16.89
2022-10-02T17:41:54.201Z,16.85
2022-10-02T17:44:39.827Z,16.81
2022-10-02T17:47:45.246Z,16.75
2022-10-02T17:50:21.231Z,16.42
2022-10-02T17:53:17.269Z,16.66
2022-10-02T17:56:26.618Z,16.62
2022-10-02T17:59:08.371Z,16.59
2022-10-02T18:01:45.132Z,16.56
2022-10-02T18:04:23.201Z,16.55
2022-10-02T18:07:03.365Z,16.51
2022-10-02T18:09:51.117Z,16.48
2022-10-02T18:12:42.538Z,16.45
2022-10-02T18:18:01.893Z,16.39
2022-10-02T18:20:35.657Z,16.35
2022-10-02T18:23:18.606Z,16.33
2022-10-02T18:25:53.139Z,15.99
2022-10-02T18:28:37.450Z,16.22
2022-10-02T18:31:44.157Z,16.21
2022-10-02T18:34:42.766Z,16.17
2022-10-02T18:37:25.401Z,16.12
2022-10-02T18:40:10.181Z,16.09
2022-10-02T18:42:51.626Z,16.05
2022-10-02T18:45:34.533Z,16.03
2022-10-02T18:48:10.693Z,15.69
2022-10-02T18:51:01.777Z,15.93
2022-10-02T18:54:01.317Z,15.90
2022-10-02T18:56:51.596Z,15.86
2022-10-02T18:59:30.042Z,15.83
2022-10-02T19:02:13.070Z,15.80
2022-10-02T19:05:04.674Z,15.75
2022-10-02T19:07:42.553Z,15.71
2022-10-02T19:10:26.169Z,15.68
2022-10-02T19:12:57.510Z,15.63
2022-10-02T19:15:28.415Z,15.60
2022-10-02T19:18:03.707Z,15.57
2022-10-02T19:20:45.012Z,15.55
2022-10-02T19:23:23.405Z,15.49
2022-10-02T19:25:53.384Z,15.45
2022-10-02T19:28:25.511Z,15.42
2022-10-02T19:30:57.410Z,15.38
2022-10-02T19:33:34.545Z,15.37
2022-10-02T19:36:05.152Z,15.34
2022-10-02T19:38:37.650Z,15.31
2022-10-02T19:41:10.584Z,15.26
2022-10-02T19:43:48.811Z,15.26
2022-10-02T19:46:19.853Z,15.21
2022-10-02T19:48:55.717Z,15.17
2022-10-02T19:51:23.716Z,15.14
2022-10-02T19:53:57.630Z,15.13
2022-10-02T19:56:31.913Z,15.10
2022-10-02T19:59:06.865Z,15.06
2022-10-02T20:01:43.492Z,15.05
2022-10-02T20:04:18.245Z,15.01
2022-10-02T20:06:52.941Z,14.97
2022-10-02T20:09:28.460Z,14.96
2022-10-02T20:12:01.058Z,14.93
2022-10-02T20:14:33.148Z,14.89
2022-10-02T20:17:09.167Z,14.84
2022-10-02T20:19:42.292Z,14.84
2022-10-02T20:22:23.909Z,14.83
2022-10-02T20:24:58.334Z,14.79
2022-10-02T20:27:36.212Z,14.77
2022-10-02T20:30:08.160Z,14.72
2022-10-02T20:32:41.942Z,14.68
2022-10-02T20:35:16.298Z,14.68
2022-10-02T20:37:46.609Z,14.63
2022-10-02T20:40:19.519Z,14.64
2022-10-02T20:42:57.673Z,14.62
2022-10-02T20:45:33.890Z,14.59
2022-10-02T20:49:06.989Z,14.55
2022-10-02T20:54:49.915Z,14.48
2022-10-02T20:58:06.065Z,14.39
2022-10-02T21:00:50.170Z,14.41
2022-10-02T21:03:38.195Z,14.39
2022-10-02T21:06:35.586Z,14.34
2022-10-02T21:09:46.545Z,14.32
2022-10-02T21:12:58.343Z,14.27
2022-10-02T21:15:55.287Z,14.23
2022-10-02T21:18:39.510Z,14.22
2022-10-02T21:21:36.024Z,14.20
2022-10-02T21:24:35.933Z,14.14
2022-10-02T21:27:21.646Z,14.14
2022-10-02T21:30:11.018Z,14.10
2022-10-02T21:32:57.828Z,14.10
2022-10-02T21:35:53.269Z,14.04
2022-10-02T21:39:07.240Z,13.98
2022-10-02T21:42:19.287Z,13.97
2022-10-02T21:45:13.850Z,13.98
2022-10-02T21:48:04.526Z,13.96
2022-10-02T21:51:23.236Z,13.92
2022-10-02T21:54:20.756Z,13.90
2022-10-02T21:57:28.965Z,13.81
2022-10-02T22:00:08.588Z,13.84
2022-10-02T22:03:11.460Z,13.81
2022-10-02T22:06:05.308Z,13.78
2022-10-02T22:08:45.200Z,13.77
2022-10-02T22:11:22.679Z,13.75
2022-10-02T22:13:54.858Z,13.73
2022-10-02T22:16:36.550Z,13.72
2022-10-02T22:19:15.595Z,13.70
2022-10-02T22:21:58.307Z,13.70
2022-10-02T22:24:49.323Z,13.67
2022-10-02T22:27:37.559Z,13.65
2022-10-02T22:30:06.321Z,13.61
2022-10-02T22:33:11.908Z,13.59
2022-10-02T22:36:17.639Z,13.56
2022-10-02T22:38:49.330Z,13.55
2022-10-02T22:41:27.573Z,13.55
2022-10-02T22:43:58.273Z,13.51
2022-10-02T22:46:41.195Z,13.51
2022-10-02T22:49:22.933Z,13.48
2022-10-02T22:52:00.639Z,13.45
2022-10-02T22:54:39.128Z,13.44
2022-10-02T22:57:15.391Z,13.41
2022-10-02T22:59:49.030Z,13.38
2022-10-02T23:02:23.938Z,13.36
2022-10-02T23:04:57.706Z,13.33
2022-10-02T23:07:34.889Z,13.30
2022-10-02T23:10:08.329Z,13.26
2022-10-02T23:12:40.260Z,13.23
2022-10-02T23:15:30.374Z,13.17
2022-10-02T23:18:02.597Z,13.13
2022-10-02T23:20:36.128Z,13.09
2022-10-02T23:23:14.793Z,13.08
2022-10-02T23:25:47.241Z,13.05
2022-10-02T23:28:20.964Z,13.00
2022-10-02T23:30:53.739Z,12.98
2022-10-02T23:33:26.197Z,12.94
2022-10-02T23:35:59.732Z,12.91
2022-10-02T23:38:39.088Z,12.90
2022-10-02T23:41:29.870Z,12.85
2022-10-02T23:44:11.092Z,12.80
2022-10-02T23:47:02.611Z,12.75
2022-10-02T23:49:36.124Z,12.73
2022-10-02T23:52:20.420Z,12.72
2022-10-02T23:55:05.782Z,12.69
2022-10-02T23:57:55.816Z,12.64
